Terminal Aerodrome Forecast
Issued by NWS Mt. Holly, NJ

Home | Current Version | Previous Version | Text Only | Print | Product List | Glossary On
Versions: 1 2 3 4 5 6 7 8 9 10 11 12 13 14 15 16 17 18 19 20 21 22 23
000
FTUS41 KPHI 261720
TAFPHL
TAF
KPHL 261720Z 2618/2724 29015G25KT P6SM BKN050
     FM262300 27009KT P6SM SCT050
     FM270600 24005KT P6SM SKC
     FM271100 21005KT P6SM BKN120
     FM271600 21010KT P6SM BKN080=

USA.gov is the U.S. government's official web portal to all federal, state and local government web resources and services.